sensor_id;sensor_type;location;lat;lon;timestamp;temperature;humidity
1578;DHT22;57623;53.608;10.004;2023-12-20T00:01:22;6.30;99.90
1578;DHT22;57623;53.608;10.004;2023-12-20T00:03:50;6.30;99.90
1578;DHT22;57623;53.608;10.004;2023-12-20T00:06:18;6.30;99.90
1578;DHT22;57623;53.608;10.004;2023-12-20T00:08:46;6.30;99.90
1578;DHT22;57623;53.608;10.004;2023-12-20T00:11:14;6.30;99.90
1578;DHT22;57623;53.608;10.004;2023-12-20T00:13:42;6.30;99.90
1578;DHT22;57623;53.608;10.004;2023-12-20T00:16:14;6.20;99.90
1578;DHT22;57623;53.608;10.004;2023-12-20T00:18:42;6.20;99.90
1578;DHT22;57623;53.608;10.004;2023-12-20T00:21:11;6.20;99.90
1578;DHT22;57623;53.608;10.004;2023-12-20T00:23:39;6.10;99.90
1578;DHT22;57623;53.608;10.004;2023-12-20T00:26:07;6.10;99.90
1578;DHT22;57623;53.608;10.004;2023-12-20T00:28:35;6.10;99.90
1578;DHT22;57623;53.608;10.004;2023-12-20T00:31:03;6.10;99.90
1578;DHT22;57623;53.608;10.004;2023-12-20T00:33:32;6.10;99.90
1578;DHT22;57623;53.608;10.004;2023-12-20T00:36:01;6.10;99.90
1578;DHT22;57623;53.608;10.004;2023-12-20T00:38:29;6.20;99.90
1578;DHT22;57623;53.608;10.004;2023-12-20T00:40:57;6.20;99.90
1578;DHT22;57623;53.608;10.004;2023-12-20T00:43:25;6.20;99.90
1578;DHT22;57623;53.608;10.004;2023-12-20T00:45:53;6.20;99.90
1578;DHT22;57623;53.608;10.004;2023-12-20T00:48:22;6.20;99.90
1578;DHT22;57623;53.608;10.004;2023-12-20T00:50:51;6.20;99.90
1578;DHT22;57623;53.608;10.004;2023-12-20T00:53:19;6.20;99.90
1578;DHT22;57623;53.608;10.004;2023-12-20T00:55:47;6.20;99.90
1578;DHT22;57623;53.608;10.004;2023-12-20T00:58:15;6.20;99.90
1578;DHT22;57623;53.608;10.004;2023-12-20T01:00:44;6.20;99.90
1578;DHT22;57623;53.608;10.004;2023-12-20T01:03:12;6.20;99.90
1578;DHT22;57623;53.608;10.004;2023-12-20T01:05:41;6.20;99.90
1578;DHT22;57623;53.608;10.004;2023-12-20T01:08:10;6.20;99.90
1578;DHT22;57623;53.608;10.004;2023-12-20T01:10:39;6.20;99.90
1578;DHT22;57623;53.608;10.004;2023-12-20T01:13:07;6.20;99.90
1578;DHT22;57623;53.608;10.004;2023-12-20T01:15:35;6.10;99.90
1578;DHT22;57623;53.608;10.004;2023-12-20T01:18:04;6.10;99.90
1578;DHT22;57623;53.608;10.004;2023-12-20T01:20:32;6.10;99.90
1578;DHT22;57623;53.608;10.004;2023-12-20T01:23:00;6.00;99.90
1578;DHT22;57623;53.608;10.004;2023-12-20T01:25:30;6.00;99.90
1578;DHT22;57623;53.608;10.004;2023-12-20T01:27:57;6.00;99.90
1578;DHT22;57623;53.608;10.004;2023-12-20T01:30:26;6.00;99.90
1578;DHT22;57623;53.608;10.004;2023-12-20T01:32:54;6.00;99.90
1578;DHT22;57623;53.608;10.004;2023-12-20T01:35:22;5.90;99.90
1578;DHT22;57623;53.608;10.004;2023-12-20T01:37:50;5.90;99.90
1578;DHT22;57623;53.608;10.004;2023-12-20T01:40:18;5.90;99.90
1578;DHT22;57623;53.608;10.004;2023-12-20T01:42:58;5.90;99.90
1578;DHT22;57623;53.608;10.004;2023-12-20T01:45:26;5.90;99.90
1578;DHT22;57623;53.608;10.004;2023-12-20T01:47:55;5.80;99.90
1578;DHT22;57623;53.608;10.004;2023-12-20T01:50:23;5.80;99.90
1578;DHT22;57623;53.608;10.004;2023-12-20T01:52:52;5.80;99.90
1578;DHT22;57623;53.608;10.004;2023-12-20T01:55:24;5.80;99.90
1578;DHT22;57623;53.608;10.004;2023-12-20T01:57:54;5.80;99.90
1578;DHT22;57623;53.608;10.004;2023-12-20T02:00:23;5.80;99.90
1578;DHT22;57623;53.608;10.004;2023-12-20T02:02:53;5.80;99.90
1578;DHT22;57623;53.608;10.004;2023-12-20T02:05:22;5.80;99.90
1578;DHT22;57623;53.608;10.004;2023-12-20T02:07:50;5.80;99.90
1578;DHT22;57623;53.608;10.004;2023-12-20T02:10:18;5.80;99.90
1578;DHT22;57623;53.608;10.004;2023-12-20T02:12:46;5.80;99.90
1578;DHT22;57623;53.608;10.004;2023-12-20T02:15:15;5.80;99.90
1578;DHT22;57623;53.608;10.004;2023-12-20T02:17:44;5.80;99.90
1578;DHT22;57623;53.608;10.004;2023-12-20T02:20:13;5.80;99.90
1578;DHT22;57623;53.608;10.004;2023-12-20T02:22:43;5.80;99.90
1578;DHT22;57623;53.608;10.004;2023-12-20T02:25:11;5.80;99.90
1578;DHT22;57623;53.608;10.004;2023-12-20T02:27:39;5.80;99.90
1578;DHT22;57623;53.608;10.004;2023-12-20T02:30:09;5.80;99.90
1578;DHT22;57623;53.608;10.004;2023-12-20T02:32:38;5.80;99.90
1578;DHT22;57623;53.608;10.004;2023-12-20T02:35:06;5.80;99.90
1578;DHT22;57623;53.608;10.004;2023-12-20T02:37:34;5.80;99.90
1578;DHT22;57623;53.608;10.004;2023-12-20T02:40:04;5.80;99.90
1578;DHT22;57623;53.608;10.004;2023-12-20T02:42:32;5.80;99.90
1578;DHT22;57623;53.608;10.004;2023-12-20T02:45:00;5.90;99.90
1578;DHT22;57623;53.608;10.004;2023-12-20T02:47:28;5.90;99.90
1578;DHT22;57623;53.608;10.004;2023-12-20T02:49:57;5.90;99.90
1578;DHT22;57623;53.608;10.004;2023-12-20T02:52:25;5.90;99.90
1578;DHT22;57623;53.608;10.004;2023-12-20T02:54:53;5.90;99.90
1578;DHT22;57623;53.608;10.004;2023-12-20T02:57:23;5.90;99.90
1578;DHT22;57623;53.608;10.004;2023-12-20T02:59:51;5.90;99.90
1578;DHT22;57623;53.608;10.004;2023-12-20T03:02:18;5.90;99.90
1578;DHT22;57623;53.608;10.004;2023-12-20T03:04:46;5.90;99.90
1578;DHT22;57623;53.608;10.004;2023-12-20T03:07:15;5.90;99.90
1578;DHT22;57623;53.608;10.004;2023-12-20T03:09:43;6.00;99.90
1578;DHT22;57623;53.608;10.004;2023-12-20T03:12:32;6.00;99.90
1578;DHT22;57623;53.608;10.004;2023-12-20T03:15:00;6.00;99.90
1578;DHT22;57623;53.608;10.004;2023-12-20T03:17:28;6.00;99.90
1578;DHT22;57623;53.608;10.004;2023-12-20T03:19:56;6.00;99.90
1578;DHT22;57623;53.608;10.004;2023-12-20T03:22:24;5.90;99.90
1578;DHT22;57623;53.608;10.004;2023-12-20T03:24:52;6.00;99.90
1578;DHT22;57623;53.608;10.004;2023-12-20T03:27:20;5.90;99.90
1578;DHT22;57623;53.608;10.004;2023-12-20T03:29:49;5.90;99.90
1578;DHT22;57623;53.608;10.004;2023-12-20T03:32:17;5.90;99.90
1578;DHT22;57623;53.608;10.004;2023-12-20T03:34:45;5.90;99.90
1578;DHT22;57623;53.608;10.004;2023-12-20T03:37:13;5.90;99.90
1578;DHT22;57623;53.608;10.004;2023-12-20T03:39:41;5.90;99.90
1578;DHT22;57623;53.608;10.004;2023-12-20T03:42:09;5.90;99.90
1578;DHT22;57623;53.608;10.004;2023-12-20T03:44:38;5.90;99.90
1578;DHT22;57623;53.608;10.004;2023-12-20T03:47:08;5.90;99.90
1578;DHT22;57623;53.608;10.004;2023-12-20T03:49:36;5.90;99.90
1578;DHT22;57623;53.608;10.004;2023-12-20T03:52:05;5.90;99.90
1578;DHT22;57623;53.608;10.004;2023-12-20T03:54:34;5.90;99.90
1578;DHT22;57623;53.608;10.004;2023-12-20T03:57:02;5.90;99.90
1578;DHT22;57623;53.608;10.004;2023-12-20T03:59:34;5.90;99.90
1578;DHT22;57623;53.608;10.004;2023-12-20T04:02:02;5.90;99.90
1578;DHT22;57623;53.608;10.004;2023-12-20T04:04:32;5.90;99.90
1578;DHT22;57623;53.608;10.004;2023-12-20T04:07:00;5.90;99.90
1578;DHT22;57623;53.608;10.004;2023-12-20T04:09:28;6.00;99.90
1578;DHT22;57623;53.608;10.004;2023-12-20T04:11:56;6.00;99.90
1578;DHT22;57623;53.608;10.004;2023-12-20T04:14:24;5.90;99.90
1578;DHT22;57623;53.608;10.004;2023-12-20T04:16:52;5.90;99.90
1578;DHT22;57623;53.608;10.004;2023-12-20T04:19:20;5.90;99.90
1578;DHT22;57623;53.608;10.004;2023-12-20T04:21:50;5.90;99.90
1578;DHT22;57623;53.608;10.004;2023-12-20T04:24:18;5.90;99.90
1578;DHT22;57623;53.608;10.004;2023-12-20T04:26:46;5.90;99.90
1578;DHT22;57623;53.608;10.004;2023-12-20T04:29:14;5.90;99.90
1578;DHT22;57623;53.608;10.004;2023-12-20T04:31:41;5.90;99.90
1578;DHT22;57623;53.608;10.004;2023-12-20T04:34:09;5.90;99.90
1578;DHT22;57623;53.608;10.004;2023-12-20T04:36:37;5.90;99.90
1578;DHT22;57623;53.608;10.004;2023-12-20T04:39:07;5.90;99.90
1578;DHT22;57623;53.608;10.004;2023-12-20T04:41:35;5.90;99.90
1578;DHT22;57623;53.608;10.004;2023-12-20T04:44:03;5.90;99.90
1578;DHT22;57623;53.608;10.004;2023-12-20T04:46:32;5.90;99.90
1578;DHT22;57623;53.608;10.004;2023-12-20T04:49:00;5.90;99.90
1578;DHT22;57623;53.608;10.004;2023-12-20T04:51:28;5.90;99.90
1578;DHT22;57623;53.608;10.004;2023-12-20T04:53:56;5.90;99.90
1578;DHT22;57623;53.608;10.004;2023-12-20T04:56:25;5.90;99.90
1578;DHT22;57623;53.608;10.004;2023-12-20T04:58:53;5.90;99.90
1578;DHT22;57623;53.608;10.004;2023-12-20T05:01:21;5.90;99.90
1578;DHT22;57623;53.608;10.004;2023-12-20T05:03:49;5.90;99.90
1578;DHT22;57623;53.608;10.004;2023-12-20T05:06:17;5.90;99.90
1578;DHT22;57623;53.608;10.004;2023-12-20T05:08:45;5.90;99.90
1578;DHT22;57623;53.608;10.004;2023-12-20T05:11:13;6.00;99.90
1578;DHT22;57623;53.608;10.004;2023-12-20T05:13:45;6.00;99.90
1578;DHT22;57623;53.608;10.004;2023-12-20T05:16:16;6.00;99.90
1578;DHT22;57623;53.608;10.004;2023-12-20T05:18:47;6.00;99.90
1578;DHT22;57623;53.608;10.004;2023-12-20T05:21:15;6.00;99.90
1578;DHT22;57623;53.608;10.004;2023-12-20T05:23:43;6.00;99.90
1578;DHT22;57623;53.608;10.004;2023-12-20T05:26:11;6.00;99.90
1578;DHT22;57623;53.608;10.004;2023-12-20T05:28:39;6.00;99.90
1578;DHT22;57623;53.608;10.004;2023-12-20T05:31:09;6.00;99.90
1578;DHT22;57623;53.608;10.004;2023-12-20T05:33:37;6.00;99.90
1578;DHT22;57623;53.608;10.004;2023-12-20T05:36:06;6.00;99.90
1578;DHT22;57623;53.608;10.004;2023-12-20T05:38:37;6.00;99.90
1578;DHT22;57623;53.608;10.004;2023-12-20T05:41:05;6.10;99.90
1578;DHT22;57623;53.608;10.004;2023-12-20T05:43:33;6.10;99.90
1578;DHT22;57623;53.608;10.004;2023-12-20T05:46:01;6.00;99.90
1578;DHT22;57623;53.608;10.004;2023-12-20T05:48:31;6.10;99.90
1578;DHT22;57623;53.608;10.004;2023-12-20T05:50:59;6.00;99.90
1578;DHT22;57623;53.608;10.004;2023-12-20T05:53:27;6.00;99.90
1578;DHT22;57623;53.608;10.004;2023-12-20T05:55:55;6.00;99.90
1578;DHT22;57623;53.608;10.004;2023-12-20T05:58:22;6.10;99.90
1578;DHT22;57623;53.608;10.004;2023-12-20T06:00:50;6.10;99.90
1578;DHT22;57623;53.608;10.004;2023-12-20T06:03:18;6.10;99.90
1578;DHT22;57623;53.608;10.004;2023-12-20T06:05:48;6.10;99.90
1578;DHT22;57623;53.608;10.004;2023-12-20T06:08:18;6.10;99.90
1578;DHT22;57623;53.608;10.004;2023-12-20T06:10:46;6.10;99.90
1578;DHT22;57623;53.608;10.004;2023-12-20T06:13:14;6.10;99.90
1578;DHT22;57623;53.608;10.004;2023-12-20T06:15:42;6.10;99.90
1578;DHT22;57623;53.608;10.004;2023-12-20T06:18:10;6.10;99.90
1578;DHT22;57623;53.608;10.004;2023-12-20T06:20:38;6.10;99.90
1578;DHT22;57623;53.608;10.004;2023-12-20T06:23:07;6.10;99.90
1578;DHT22;57623;53.608;10.004;2023-12-20T06:25:35;6.10;99.90
1578;DHT22;57623;53.608;10.004;2023-12-20T06:28:04;6.10;99.90
1578;DHT22;57623;53.608;10.004;2023-12-20T06:30:33;6.10;99.90
1578;DHT22;57623;53.608;10.004;2023-12-20T06:33:01;6.10;99.90
1578;DHT22;57623;53.608;10.004;2023-12-20T06:35:29;6.20;99.90
1578;DHT22;57623;53.608;10.004;2023-12-20T06:38:01;6.10;99.90
1578;DHT22;57623;53.608;10.004;2023-12-20T06:40:30;6.10;99.90
1578;DHT22;57623;53.608;10.004;2023-12-20T06:42:58;6.20;99.90
1578;DHT22;57623;53.608;10.004;2023-12-20T06:45:38;6.20;99.90
1578;DHT22;57623;53.608;10.004;2023-12-20T06:48:06;6.20;99.90
1578;DHT22;57623;53.608;10.004;2023-12-20T06:50:34;6.20;99.90
1578;DHT22;57623;53.608;10.004;2023-12-20T06:53:06;6.20;99.90
1578;DHT22;57623;53.608;10.004;2023-12-20T06:55:36;6.20;99.90
1578;DHT22;57623;53.608;10.004;2023-12-20T06:58:05;6.20;99.90
1578;DHT22;57623;53.608;10.004;2023-12-20T07:00:33;6.20;99.90
1578;DHT22;57623;53.608;10.004;2023-12-20T07:03:01;6.20;99.90
1578;DHT22;57623;53.608;10.004;2023-12-20T07:05:29;6.20;99.90
1578;DHT22;57623;53.608;10.004;2023-12-20T07:07:57;6.20;99.90
1578;DHT22;57623;53.608;10.004;2023-12-20T07:10:25;6.20;99.90
1578;DHT22;57623;53.608;10.004;2023-12-20T07:12:55;6.20;99.90
1578;DHT22;57623;53.608;10.004;2023-12-20T07:15:23;6.20;99.90
1578;DHT22;57623;53.608;10.004;2023-12-20T07:17:51;6.20;99.90
1578;DHT22;57623;53.608;10.004;2023-12-20T07:20:19;6.30;99.90
1578;DHT22;57623;53.608;10.004;2023-12-20T07:22:47;6.20;99.90
1578;DHT22;57623;53.608;10.004;2023-12-20T07:25:15;6.20;99.90
1578;DHT22;57623;53.608;10.004;2023-12-20T07:27:43;6.20;99.90
1578;DHT22;57623;53.608;10.004;2023-12-20T07:30:14;6.20;99.90
1578;DHT22;57623;53.608;10.004;2023-12-20T07:32:42;6.30;99.90
1578;DHT22;57623;53.608;10.004;2023-12-20T07:35:10;6.30;99.90
1578;DHT22;57623;53.608;10.004;2023-12-20T07:37:38;6.30;99.90
1578;DHT22;57623;53.608;10.004;2023-12-20T07:40:07;6.30;99.90
1578;DHT22;57623;53.608;10.004;2023-12-20T07:42:35;6.30;99.90
1578;DHT22;57623;53.608;10.004;2023-12-20T07:45:04;6.30;99.90
1578;DHT22;57623;53.608;10.004;2023-12-20T07:47:33;6.30;99.90
1578;DHT22;57623;53.608;10.004;2023-12-20T07:50:02;6.30;99.90
1578;DHT22;57623;53.608;10.004;2023-12-20T07:52:30;6.30;99.90
1578;DHT22;57623;53.608;10.004;2023-12-20T07:54:58;6.30;99.90
1578;DHT22;57623;53.608;10.004;2023-12-20T07:57:28;6.40;99.90
1578;DHT22;57623;53.608;10.004;2023-12-20T07:59:56;6.40;99.90
1578;DHT22;57623;53.608;10.004;2023-12-20T08:02:24;6.40;99.90
1578;DHT22;57623;53.608;10.004;2023-12-20T08:04:54;6.40;99.90
1578;DHT22;57623;53.608;10.004;2023-12-20T08:07:22;6.40;99.90
1578;DHT22;57623;53.608;10.004;2023-12-20T08:09:51;6.40;99.90
1578;DHT22;57623;53.608;10.004;2023-12-20T08:12:19;6.50;99.90
1578;DHT22;57623;53.608;10.004;2023-12-20T08:14:47;6.50;99.90
1578;DHT22;57623;53.608;10.004;2023-12-20T08:17:15;6.50;99.90
1578;DHT22;57623;53.608;10.004;2023-12-20T08:19:45;6.50;99.90
1578;DHT22;57623;53.608;10.004;2023-12-20T08:22:15;6.50;99.90
1578;DHT22;57623;53.608;10.004;2023-12-20T08:24:43;6.50;99.90
1578;DHT22;57623;53.608;10.004;2023-12-20T08:27:11;6.50;99.90
1578;DHT22;57623;53.608;10.004;2023-12-20T08:29:39;6.50;99.90
1578;DHT22;57623;53.608;10.004;2023-12-20T08:32:07;6.50;99.90
1578;DHT22;57623;53.608;10.004;2023-12-20T08:34:35;6.50;99.90
1578;DHT22;57623;53.608;10.004;2023-12-20T08:37:03;6.60;99.90
1578;DHT22;57623;53.608;10.004;2023-12-20T08:39:33;6.60;99.90
1578;DHT22;57623;53.608;10.004;2023-12-20T08:42:01;6.60;99.90
1578;DHT22;57623;53.608;10.004;2023-12-20T08:44:29;6.60;99.90
1578;DHT22;57623;53.608;10.004;2023-12-20T08:46:57;6.70;99.90
1578;DHT22;57623;53.608;10.004;2023-12-20T08:49:25;6.70;99.90
1578;DHT22;57623;53.608;10.004;2023-12-20T08:51:53;6.70;99.90
1578;DHT22;57623;53.608;10.004;2023-12-20T08:54:21;6.80;99.90
1578;DHT22;57623;53.608;10.004;2023-12-20T08:56:50;6.80;99.90
1578;DHT22;57623;53.608;10.004;2023-12-20T08:59:18;6.80;99.90
1578;DHT22;57623;53.608;10.004;2023-12-20T09:01:46;6.80;99.90
1578;DHT22;57623;53.608;10.004;2023-12-20T09:04:15;6.70;99.90
1578;DHT22;57623;53.608;10.004;2023-12-20T09:06:43;6.70;99.90
1578;DHT22;57623;53.608;10.004;2023-12-20T09:09:11;6.70;99.90
1578;DHT22;57623;53.608;10.004;2023-12-20T09:11:40;6.70;99.90
1578;DHT22;57623;53.608;10.004;2023-12-20T09:14:10;6.80;99.90
1578;DHT22;57623;53.608;10.004;2023-12-20T09:16:38;6.70;99.90
1578;DHT22;57623;53.608;10.004;2023-12-20T09:19:06;6.70;99.90
1578;DHT22;57623;53.608;10.004;2023-12-20T09:21:34;6.70;99.90
1578;DHT22;57623;53.608;10.004;2023-12-20T09:24:02;6.60;99.90
1578;DHT22;57623;53.608;10.004;2023-12-20T09:26:30;6.60;99.90
1578;DHT22;57623;53.608;10.004;2023-12-20T09:28:58;6.60;99.90
1578;DHT22;57623;53.608;10.004;2023-12-20T09:31:27;6.50;99.90
1578;DHT22;57623;53.608;10.004;2023-12-20T09:33:56;6.50;99.90
1578;DHT22;57623;53.608;10.004;2023-12-20T09:36:24;6.50;99.90
1578;DHT22;57623;53.608;10.004;2023-12-20T09:38:52;6.50;99.90
1578;DHT22;57623;53.608;10.004;2023-12-20T09:41:20;6.50;99.90
1578;DHT22;57623;53.608;10.004;2023-12-20T09:43:49;6.50;99.90
1578;DHT22;57623;53.608;10.004;2023-12-20T09:46:20;6.50;99.90
1578;DHT22;57623;53.608;10.004;2023-12-20T09:48:54;6.50;99.90
1578;DHT22;57623;53.608;10.004;2023-12-20T09:51:22;6.50;99.90
1578;DHT22;57623;53.608;10.004;2023-12-20T09:53:52;6.50;99.90
1578;DHT22;57623;53.608;10.004;2023-12-20T09:56:22;6.50;99.90
1578;DHT22;57623;53.608;10.004;2023-12-20T09:58:50;6.40;99.90
1578;DHT22;57623;53.608;10.004;2023-12-20T10:01:18;6.30;99.90
1578;DHT22;57623;53.608;10.004;2023-12-20T10:03:46;6.20;99.90
1578;DHT22;57623;53.608;10.004;2023-12-20T10:06:16;6.20;99.90
1578;DHT22;57623;53.608;10.004;2023-12-20T10:08:44;6.20;99.90
1578;DHT22;57623;53.608;10.004;2023-12-20T10:11:12;6.10;99.90
1578;DHT22;57623;53.608;10.004;2023-12-20T10:13:41;6.10;99.90
1578;DHT22;57623;53.608;10.004;2023-12-20T10:16:09;6.10;99.90
1578;DHT22;57623;53.608;10.004;2023-12-20T10:18:37;6.10;99.90
1578;DHT22;57623;53.608;10.004;2023-12-20T10:21:06;6.00;99.90
1578;DHT22;57623;53.608;10.004;2023-12-20T10:23:38;6.00;99.90
1578;DHT22;57623;53.608;10.004;2023-12-20T10:26:07;6.00;99.90
1578;DHT22;57623;53.608;10.004;2023-12-20T10:28:36;6.00;99.90
1578;DHT22;57623;53.608;10.004;2023-12-20T10:31:04;6.00;99.90
1578;DHT22;57623;53.608;10.004;2023-12-20T10:33:33;6.00;99.90
1578;DHT22;57623;53.608;10.004;2023-12-20T10:36:02;6.00;99.90
1578;DHT22;57623;53.608;10.004;2023-12-20T10:38:30;6.00;99.90
1578;DHT22;57623;53.608;10.004;2023-12-20T10:41:01;6.00;99.90
1578;DHT22;57623;53.608;10.004;2023-12-20T10:43:33;6.00;99.90
1578;DHT22;57623;53.608;10.004;2023-12-20T10:46:03;6.00;99.90
1578;DHT22;57623;53.608;10.004;2023-12-20T10:48:32;6.00;99.90
1578;DHT22;57623;53.608;10.004;2023-12-20T10:51:01;6.00;99.90
1578;DHT22;57623;53.608;10.004;2023-12-20T10:53:29;5.90;99.90
1578;DHT22;57623;53.608;10.004;2023-12-20T10:56:00;5.90;99.90
1578;DHT22;57623;53.608;10.004;2023-12-20T10:58:32;5.90;99.90
1578;DHT22;57623;53.608;10.004;2023-12-20T11:01:01;5.90;99.90
1578;DHT22;57623;53.608;10.004;2023-12-20T11:03:34;5.90;99.90
1578;DHT22;57623;53.608;10.004;2023-12-20T11:06:08;5.90;99.90
1578;DHT22;57623;53.608;10.004;2023-12-20T11:08:44;5.90;99.90
1578;DHT22;57623;53.608;10.004;2023-12-20T11:11:20;5.90;99.90
1578;DHT22;57623;53.608;10.004;2023-12-20T11:13:57;5.80;99.90
1578;DHT22;57623;53.608;10.004;2023-12-20T11:16:26;5.90;99.90
1578;DHT22;57623;53.608;10.004;2023-12-20T11:19:07;5.80;99.90
1578;DHT22;57623;53.608;10.004;2023-12-20T11:21:35;5.80;99.90
1578;DHT22;57623;53.608;10.004;2023-12-20T11:24:04;5.80;99.90
1578;DHT22;57623;53.608;10.004;2023-12-20T11:26:34;5.70;99.90
1578;DHT22;57623;53.608;10.004;2023-12-20T11:29:29;5.70;99.90
1578;DHT22;57623;53.608;10.004;2023-12-20T11:31:57;5.60;99.90
1578;DHT22;57623;53.608;10.004;2023-12-20T11:34:27;5.60;99.90
1578;DHT22;57623;53.608;10.004;2023-12-20T11:36:59;5.60;99.90
1578;DHT22;57623;53.608;10.004;2023-12-20T11:39:28;5.60;99.90
1578;DHT22;57623;53.608;10.004;2023-12-20T11:42:04;5.60;99.90
1578;DHT22;57623;53.608;10.004;2023-12-20T11:44:33;5.60;99.90
1578;DHT22;57623;53.608;10.004;2023-12-20T11:47:01;5.60;99.90
1578;DHT22;57623;53.608;10.004;2023-12-20T11:49:29;5.60;99.90
1578;DHT22;57623;53.608;10.004;2023-12-20T11:51:57;5.60;99.90
1578;DHT22;57623;53.608;10.004;2023-12-20T11:54:27;5.60;99.90
1578;DHT22;57623;53.608;10.004;2023-12-20T11:56:55;5.70;99.90
1578;DHT22;57623;53.608;10.004;2023-12-20T11:59:24;5.80;99.90
1578;DHT22;57623;53.608;10.004;2023-12-20T12:01:52;5.80;99.90
1578;DHT22;57623;53.608;10.004;2023-12-20T12:04:23;5.80;99.90
1578;DHT22;57623;53.608;10.004;2023-12-20T12:06:51;5.80;99.90
1578;DHT22;57623;53.608;10.004;2023-12-20T12:09:19;5.80;99.90
1578;DHT22;57623;53.608;10.004;2023-12-20T12:11:47;5.90;99.90
1578;DHT22;57623;53.608;10.004;2023-12-20T12:14:15;5.90;99.90
1578;DHT22;57623;53.608;10.004;2023-12-20T12:16:45;6.10;99.90
1578;DHT22;57623;53.608;10.004;2023-12-20T12:19:20;6.10;99.90
1578;DHT22;57623;53.608;10.004;2023-12-20T12:21:49;6.20;99.90
1578;DHT22;57623;53.608;10.004;2023-12-20T12:24:20;6.30;99.90
1578;DHT22;57623;53.608;10.004;2023-12-20T12:26:52;6.50;99.90
1578;DHT22;57623;53.608;10.004;2023-12-20T12:29:20;6.50;99.90
1578;DHT22;57623;53.608;10.004;2023-12-20T12:31:49;6.60;99.90
1578;DHT22;57623;53.608;10.004;2023-12-20T12:34:17;6.70;99.90
1578;DHT22;57623;53.608;10.004;2023-12-20T12:36:46;6.90;99.90
1578;DHT22;57623;53.608;10.004;2023-12-20T12:39:15;7.00;99.90
1578;DHT22;57623;53.608;10.004;2023-12-20T12:41:45;7.10;99.90
1578;DHT22;57623;53.608;10.004;2023-12-20T12:44:13;7.10;99.90
1578;DHT22;57623;53.608;10.004;2023-12-20T12:46:44;7.10;99.90
1578;DHT22;57623;53.608;10.004;2023-12-20T12:49:13;7.20;99.90
1578;DHT22;57623;53.608;10.004;2023-12-20T12:51:42;7.20;99.90
1578;DHT22;57623;53.608;10.004;2023-12-20T12:54:10;7.20;99.90
1578;DHT22;57623;53.608;10.004;2023-12-20T12:56:39;7.10;99.90
1578;DHT22;57623;53.608;10.004;2023-12-20T12:59:08;7.00;99.90
1578;DHT22;57623;53.608;10.004;2023-12-20T13:01:36;7.00;99.90
1578;DHT22;57623;53.608;10.004;2023-12-20T13:04:06;7.00;99.90
1578;DHT22;57623;53.608;10.004;2023-12-20T13:06:40;7.10;99.90
1578;DHT22;57623;53.608;10.004;2023-12-20T13:09:09;7.00;99.90
1578;DHT22;57623;53.608;10.004;2023-12-20T13:11:37;7.10;99.90
1578;DHT22;57623;53.608;10.004;2023-12-20T13:14:05;7.10;99.90
1578;DHT22;57623;53.608;10.004;2023-12-20T13:16:37;7.20;99.90
1578;DHT22;57623;53.608;10.004;2023-12-20T13:19:05;7.20;99.90
1578;DHT22;57623;53.608;10.004;2023-12-20T13:21:33;7.20;99.90
1578;DHT22;57623;53.608;10.004;2023-12-20T13:24:03;7.10;99.90
1578;DHT22;57623;53.608;10.004;2023-12-20T13:26:31;7.10;99.90
1578;DHT22;57623;53.608;10.004;2023-12-20T13:28:59;7.10;99.90
1578;DHT22;57623;53.608;10.004;2023-12-20T13:31:28;7.10;99.90
1578;DHT22;57623;53.608;10.004;2023-12-20T13:33:56;7.00;99.90
1578;DHT22;57623;53.608;10.004;2023-12-20T13:36:24;7.00;99.90
1578;DHT22;57623;53.608;10.004;2023-12-20T13:38:52;7.10;99.90
1578;DHT22;57623;53.608;10.004;2023-12-20T13:41:22;7.00;99.90
1578;DHT22;57623;53.608;10.004;2023-12-20T13:43:50;6.90;99.90
1578;DHT22;57623;53.608;10.004;2023-12-20T13:46:19;6.90;99.90
1578;DHT22;57623;53.608;10.004;2023-12-20T13:48:47;6.80;99.90
1578;DHT22;57623;53.608;10.004;2023-12-20T13:51:16;6.80;99.90
1578;DHT22;57623;53.608;10.004;2023-12-20T13:53:44;6.70;99.90
1578;DHT22;57623;53.608;10.004;2023-12-20T13:56:12;6.70;99.90
1578;DHT22;57623;53.608;10.004;2023-12-20T13:58:42;6.60;99.90
1578;DHT22;57623;53.608;10.004;2023-12-20T14:01:10;6.60;99.90
1578;DHT22;57623;53.608;10.004;2023-12-20T14:03:38;6.50;99.90
1578;DHT22;57623;53.608;10.004;2023-12-20T14:06:07;6.50;99.90
1578;DHT22;57623;53.608;10.004;2023-12-20T14:08:35;6.50;99.90
1578;DHT22;57623;53.608;10.004;2023-12-20T14:11:04;6.40;99.90
1578;DHT22;57623;53.608;10.004;2023-12-20T14:13:32;6.50;99.90
1578;DHT22;57623;53.608;10.004;2023-12-20T14:16:01;6.50;99.90
1578;DHT22;57623;53.608;10.004;2023-12-20T14:18:30;6.50;99.90
1578;DHT22;57623;53.608;10.004;2023-12-20T14:20:58;6.40;99.90
1578;DHT22;57623;53.608;10.004;2023-12-20T14:23:26;6.40;99.90
1578;DHT22;57623;53.608;10.004;2023-12-20T14:25:54;6.50;99.90
1578;DHT22;57623;53.608;10.004;2023-12-20T14:28:23;6.50;99.90
1578;DHT22;57623;53.608;10.004;2023-12-20T14:30:51;6.50;99.90
1578;DHT22;57623;53.608;10.004;2023-12-20T14:33:20;6.50;99.90
1578;DHT22;57623;53.608;10.004;2023-12-20T14:35:48;6.50;99.90
1578;DHT22;57623;53.608;10.004;2023-12-20T14:38:16;6.50;99.90
1578;DHT22;57623;53.608;10.004;2023-12-20T14:40:45;6.40;99.90
1578;DHT22;57623;53.608;10.004;2023-12-20T14:43:13;6.40;99.90
1578;DHT22;57623;53.608;10.004;2023-12-20T14:45:41;6.40;99.90
1578;DHT22;57623;53.608;10.004;2023-12-20T14:48:09;6.40;99.90
1578;DHT22;57623;53.608;10.004;2023-12-20T14:50:38;6.30;99.90
1578;DHT22;57623;53.608;10.004;2023-12-20T14:53:07;6.30;99.90
1578;DHT22;57623;53.608;10.004;2023-12-20T14:55:35;6.30;99.90
1578;DHT22;57623;53.608;10.004;2023-12-20T14:58:04;6.30;99.90
1578;DHT22;57623;53.608;10.004;2023-12-20T15:00:32;6.30;99.90
1578;DHT22;57623;53.608;10.004;2023-12-20T15:03:00;6.30;99.90
1578;DHT22;57623;53.608;10.004;2023-12-20T15:05:28;6.30;99.90
1578;DHT22;57623;53.608;10.004;2023-12-20T15:07:58;6.30;99.90
1578;DHT22;57623;53.608;10.004;2023-12-20T15:10:25;6.30;99.90
1578;DHT22;57623;53.608;10.004;2023-12-20T15:12:54;6.30;99.90
1578;DHT22;57623;53.608;10.004;2023-12-20T15:15:22;6.30;99.90
1578;DHT22;57623;53.608;10.004;2023-12-20T15:17:50;6.30;99.90
1578;DHT22;57623;53.608;10.004;2023-12-20T15:20:19;6.30;99.90
1578;DHT22;57623;53.608;10.004;2023-12-20T15:22:47;6.30;99.90
1578;DHT22;57623;53.608;10.004;2023-12-20T15:25:17;6.20;99.90
1578;DHT22;57623;53.608;10.004;2023-12-20T15:27:48;6.30;99.90
1578;DHT22;57623;53.608;10.004;2023-12-20T15:30:20;6.20;99.90
1578;DHT22;57623;53.608;10.004;2023-12-20T15:32:48;6.20;99.90
1578;DHT22;57623;53.608;10.004;2023-12-20T15:35:16;6.20;99.90
1578;DHT22;57623;53.608;10.004;2023-12-20T15:37:45;6.20;99.90
1578;DHT22;57623;53.608;10.004;2023-12-20T15:40:13;6.20;99.90
1578;DHT22;57623;53.608;10.004;2023-12-20T15:42:43;6.20;99.90
1578;DHT22;57623;53.608;10.004;2023-12-20T15:45:11;6.20;99.90
1578;DHT22;57623;53.608;10.004;2023-12-20T15:47:39;6.20;99.90
1578;DHT22;57623;53.608;10.004;2023-12-20T15:50:07;6.10;99.90
1578;DHT22;57623;53.608;10.004;2023-12-20T15:52:36;6.10;99.90
1578;DHT22;57623;53.608;10.004;2023-12-20T15:55:05;6.10;99.90